ADDS METAR Data INFO
IDs: Format: Raw Decoded Include TAF

Data at: 2045 UTC 16 Dec 2017

KHSG 162030Z AUTO 04003KT 1 1/2SM -SN OVC005 00/00 A2984 RMK AO2 T00001005
KHSG 162010Z AUTO 00000KT 1 3/4SM -SN OVC005 00/00 A2985 RMK AO2 T00001005
KHSG 161950Z AUTO 00000KT 1 3/4SM -SN BKN007 OVC013 00/00 A2985 RMK AO2 T00011005
KHSG 161930Z AUTO 00000KT 2 1/2SM -SN BKN009 OVC014 00/00 A2984 RMK AO2 T00031005
KHSG 161910Z AUTO 00000KT 2 1/2SM -SN SCT005 OVC011 00/00 A2985 RMK AO2 T00011004
KHSG 161850Z AUTO 00000KT 1 1/2SM -SN BKN005 OVC009 00/00 A2985 RMK AO2 T00041002
KHSG 161830Z AUTO 21003KT 2SM -SN SCT007 BKN015 OVC050 00/00 A2985 RMK AO2 T00011004
KHSG 161810Z AUTO 00000KT 2SM -SN BKN006 BKN013 OVC027 00/00 A2987 RMK AO2 T00001005
KHSG 161750Z AUTO 00000KT 4SM -SN SCT002 BKN009 OVC046 00/00 A2987 RMK AO2 T00001005 10018 21010
KHSG 161730Z AUTO 20004KT 1 1/2SM UP BKN003 BKN009 OVC016 00/00 A2988 RMK AO2 T00001005
KHSG 161710Z AUTO 18004KT 1 1/2SM -SN SCT003 OVC013 00/00 A2988 RMK AO2 T00001005
KHSG 161650Z AUTO 19005KT 1 3/4SM -SN SCT003 OVC014 00/M01 A2988 RMK AO2 T00001006
KHSG 161630Z AUTO 19005KT 2SM -SN SCT005 OVC011 00/M01 A2987 RMK AO2 T00001006
KHSG 161610Z AUTO 00000KT 1 1/4SM -SN SCT003 BKN009 OVC014 00/M01 A2988 RMK AO2 T10031008
KHSG 161550Z AUTO 00000KT 3/4SM -SN OVC012 00/M01 A2987 RMK AO2 T10051009
KHSG 161530Z AUTO 00000KT 1SM UP OVC013 M01/M01 A2987 RMK AO2 T10071011
KHSG 161510Z AUTO 00000KT 1 1/4SM -SN SCT009 OVC021 M01/M01 A2987 RMK AO2 T10101015
KHSG 161450Z AUTO 26003KT 1 1/2SM -SN OVC022 M01/M01 A2987 RMK AO2 T10101015
KHSG 161430Z AUTO 26004KT 2 1/2SM -SN BKN020 OVC026 M01/M01 A2987 RMK AO2 T10101015
KHSG 161410Z AUTO 27004KT 1 3/4SM -SN OVC017 M01/M01 A2987 RMK AO2 T10081015
KHSG 161350Z AUTO 28004KT 1 1/4SM -SN OVC015 M01/M01 A2987 RMK AO2 T10061015
KHSG 161330Z AUTO 00000KT 1 1/2SM -SN BKN017 OVC024 00/M02 A2987 RMK AO2 T00001020
KHSG 161310Z AUTO 31004KT 10SM -SN SCT024 BKN029 OVC041 01/M04 A2985 RMK AO2 T00121039
KHSG 161250Z AUTO 30006KT 10SM BKN037 OVC047 02/M05 A2985 RMK AO2 T00181053
KHSG 161230Z AUTO 31003KT 10SM BKN049 OVC060 02/M06 A2984 RMK AO2 T00151062
KHSG 161210Z AUTO 00000KT 10SM OVC060 02/M07 A2984 RMK AO2 T00181066
KHSG 161150Z AUTO 29005KT 10SM SCT070 OVC080 02/M07 A2983 RMK AO2 T00201069 10025 21035
KHSG 161130Z AUTO 30007KT 10SM OVC080 02/M07 A2982 RMK AO2 T00181070
KHSG 161110Z AUTO 33008KT 10SM OVC090 02/M07 A2983 RMK AO2 T00181073
KHSG 161050Z AUTO 33007KT 10SM SCT090 OVC110 02/M08 A2982 RMK AO2 T00221076
KHSG 161030Z AUTO 31007KT 10SM BKN120 02/M08 A2981 RMK AO2 T00221078
KHSG 161010Z AUTO 31006KT 10SM SCT120 02/M08 A2981 RMK AO2 T00171084
KHSG 160950Z AUTO 00000KT 10SM CLR 00/M08 A2981 RMK AO2 T10031084
KHSG 160930Z AUTO 00000KT 10SM CLR M01/M08 A2981 RMK AO2 T10111079
KHSG 160910Z AUTO 35004KT 10SM CLR M02/M07 A2980 RMK AO2 T10221074
KHSG 160850Z AUTO 00000KT 10SM CLR M02/M08 A2980 RMK AO2 T10211078
KHSG 160830Z AUTO 00000KT 10SM CLR M03/M08 A2979 RMK AO2 T10261076
KHSG 160810Z AUTO 27005KT 10SM CLR M02/M08 A2979 RMK AO2 T10221077
KHSG 160750Z AUTO 25004KT 10SM CLR M03/M08 A2979 RMK AO2 T10301076
KHSG 160730Z AUTO 00000KT 10SM CLR M02/M08 A2979 RMK AO2 T10171078
KHSG 160710Z AUTO 00000KT 10SM CLR 00/M08 A2979 RMK AO2 T10031080
KHSG 160650Z AUTO 27006KT 10SM CLR M02/M08 A2980 RMK AO2 T10161080 400521108
KHSG 160630Z AUTO 21003KT 10SM CLR 00/M08 A2980 RMK AO2 T10041084
KHSG 160610Z AUTO 32005KT 10SM CLR 01/M08 A2979 RMK AO2 T00111085
KHSG 160550Z AUTO 36007KT 10SM CLR 00/M07 A2977 RMK AO2 T00001075 10011 21029
KHSG 160530Z AUTO 01006KT 10SM CLR M01/M07 A2976 RMK AO2 T10081074
KHSG 160510Z AUTO 36008KT 10SM CLR M01/M07 A2976 RMK AO2 T10131071
KHSG 160450Z AUTO 00000KT 10SM CLR M01/M07 A2975 RMK AO2 T10141072
KHSG 160430Z AUTO 17007KT 10SM CLR M02/M07 A2975 RMK AO2 T10201075
KHSG 160410Z AUTO 30004KT 10SM CLR 00/M08 A2975 RMK AO2 T00021078
KHSG 160350Z AUTO 27007KT 10SM CLR M01/M07 A2977 RMK AO2 T10071071
KHSG 160330Z AUTO 26004KT 10SM CLR 00/M07 A2976 RMK AO2 T10031075
KHSG 160310Z AUTO 20004KT 10SM CLR 00/M07 A2977 RMK AO2 T10041075
KHSG 160250Z AUTO 24004KT 10SM CLR M02/M07 A2979 RMK AO2 T10211071
KHSG 160230Z AUTO 21003KT 10SM CLR M03/M07 A2980 RMK AO2 T10261075
KHSG 160210Z AUTO 00000KT 10SM CLR 01/M08 A2980 RMK AO2 T00091077
KHSG 160150Z AUTO 26003KT 10SM CLR M01/M07 A2980 RMK AO2 T10121069
KHSG 160130Z AUTO 27006KT 10SM CLR 00/M07 A2979 RMK AO2 T10051074
KHSG 160110Z AUTO 01003KT 10SM CLR M01/M07 A2979 RMK AO2 T10111071
KHSG 160050Z AUTO 00000KT 10SM CLR 00/M07 A2979 RMK AO2 T00011068
KHSG 160030Z AUTO 30003KT 10SM CLR 00/M08 A2979 RMK AO2 T00011076
KHSG 160010Z AUTO 35003KT 10SM CLR 00/M07 A2979 RMK AO2 T10051075
KHSG 152350Z AUTO 00000KT 10SM CLR 00/M07 A2979 RMK AO2 T00031071 10052 21004
KHSG 152330Z AUTO 36003KT 10SM CLR 01/M06 A2980 RMK AO2 T00111065
KHSG 152310Z AUTO 00000KT 10SM CLR 02/M06 A2981 RMK AO2 T00231061
KHSG 152250Z AUTO 00000KT 10SM CLR 04/M06 A2981 RMK AO2 T00401065
KHSG 152230Z AUTO 00000KT 10SM CLR 04/M05 A2982 RMK AO2 T00411053
KHSG 152210Z AUTO 21004KT 10SM CLR 03/M05 A2984 RMK AO2 T00321047
KHSG 152150Z AUTO 00000KT 10SM CLR 03/M05 A2984 RMK AO2 T00311048
KHSG 152130Z AUTO 00000KT 10SM CLR 02/M05 A2985 RMK AO2 T00241050
KHSG 152110Z AUTO 03003KT 10SM CLR 03/M05 A2986 RMK AO2 T00261048
KHSG 152050Z AUTO 33003KT 10SM CLR 04/M05 A2985 RMK AO2 T00361051
KHSG 152030Z AUTO 03003KT 10SM CLR 04/M06 A2987 RMK AO2 T00381061
KHSG 152010Z AUTO 03003KT 10SM CLR 04/M05 A2987 RMK AO2 T00351055
KHSG 151950Z AUTO 05003KT 10SM CLR 04/M05 A2988 RMK AO2 T00411054
KHSG 151930Z AUTO 07003KT 10SM CLR 05/M08 A2989 RMK AO2 T00501076
KHSG 151910Z AUTO 16003KT 10SM CLR 05/M08 A2989 RMK AO2 T00521082
KHSG 151850Z AUTO 00000KT 10SM CLR 04/M07 A2990 RMK AO2 T00441075
KHSG 151830Z AUTO 14003KT 10SM CLR 05/M07 A2992 RMK AO2 T00451073
KHSG 151810Z AUTO 13003KT 10SM CLR 03/M07 A2994 RMK AO2 T00321070
KHSG 151750Z AUTO 15003KT 10SM CLR 04/M08 A2995 RMK AO2 T00401076 10040 21101
KHSG 151730Z AUTO 00000KT 10SM CLR 03/M09 A2997 RMK AO2 T00271095
KHSG 151710Z AUTO 00000KT 10SM CLR 02/M08 A2998 RMK AO2 T00211082
KHSG 151650Z AUTO 00000KT 10SM CLR 02/M09 A2998 RMK AO2 T00201090
KHSG 151630Z AUTO 21003KT 10SM CLR 00/M06 A2998 RMK AO2 T10031056
KHSG 151610Z AUTO 00000KT 10SM CLR M03/M07 A2999 RMK AO2 T10321071
KHSG 151550Z AUTO 00000KT 10SM CLR M02/M08 A2999 RMK AO2 T10221078
KHSG 151530Z AUTO 27006KT 10SM CLR M06/M09 A3000 RMK AO2 T10571091
KHSG 151510Z AUTO 27005KT 10SM CLR M09/M12 A3001 RMK AO2 T10921118
KHSG 151450Z AUTO 15003KT 10SM CLR M06/M11 A3000 RMK AO2 T10571112
KHSG 151430Z AUTO 36004KT 10SM CLR M07/M11 A3002 RMK AO2 T10661108
KHSG 151410Z AUTO 00000KT 10SM CLR M09/M12 A3002 RMK AO2 T10951124
KHSG 151350Z AUTO 00000KT 10SM CLR M09/M13 A3002 RMK AO2 T10951127
KHSG 151330Z AUTO 00000KT 10SM CLR M08/M12 A3002 RMK AO2 T10851119
KHSG 151310Z AUTO 33003KT 10SM CLR M08/M12 A3001 RMK AO2 T10841119
KHSG 151250Z AUTO 00000KT 10SM CLR M07/M11 A3002 RMK AO2 T10741114
KHSG 151230Z AUTO 27004KT 10SM CLR M09/M12 A3002 RMK AO2 T10871117
KHSG 151210Z AUTO 25004KT 10SM CLR M09/M12 A3002 RMK AO2 T10911118
KHSG 151150Z AUTO 23003KT 10SM CLR M08/M11 A3003 RMK AO2 T10771112 11045 21108
KHSG 151130Z AUTO 00000KT 10SM CLR M09/M11 A3005 RMK AO2 T10871115
KHSG 151110Z AUTO 29003KT 10SM CLR M10/M13 A3006 RMK AO2 T11001128
KHSG 151050Z AUTO 00000KT 10SM CLR M10/M12 A3007 RMK AO2 T10961125
KHSG 151030Z AUTO 00000KT 10SM CLR M10/M12 A3007 RMK AO2 T11001120
KHSG 151010Z AUTO 00000KT 10SM CLR M09/M12 A3007 RMK AO2 T10881116
KHSG 150950Z AUTO 00000KT 10SM CLR M10/M12 A3007 RMK AO2 T11041124
KHSG 150930Z AUTO 00000KT 10SM CLR M08/M11 A3008 RMK AO2 T10781107
KHSG 150910Z AUTO 00000KT 10SM CLR M06/M10 A3008 RMK AO2 T10621100
KHSG 150850Z AUTO 00000KT 10SM CLR M05/M10 A3008 RMK AO2 T10521096